Current Weather



TAF Data Links

METAR Data Links

Latest METAR/TAF Data


Available data for KAUS from the past 2 hours
AUSTIN, TX
Metar
KAUS 262053Z 30004KT 4SM RA BR SCT024 BKN048 OVC110 24/24 A2987 RMK AO2 LTG DSNT SE SLP107 P0024 60100 T02390239 55007

20:53 UTC

Wind: 300° 4kt

Visibility: 4 SM

Sky: SCT 2400 ft

Temp: 24 deg C / 75.2 deg F

Dewpoint: 24 deg C / 75.2 deg F

Pressure: 29.87 inHg

TAF
KAUS 262102Z 2621/2724 VRB05KT 6SM -SHRA SCT035 BKN050 TEMPO 2621/2623 2SM SHRA BKN025 FM270300 04005KT P6SM OVC050 FM270800 03002KT P6SM VCSH OVC025 FM271300 00000KT P6SM VCSH OVC015


Available data for KEDC from the past 2 hours
AUSTIN EXEC, TX
Metar
KEDC 261955Z AUTO 00000KT 2 1/2SM -RA CLR 27/23 A2988 RMK AO2 P0002

19:55 UTC

Wind: 0° 0kt

Visibility: 2.5 SM

Sky:

Temp: 27 deg C / 80.6 deg F

Dewpoint: 23 deg C / 73.4 deg F

Pressure: 29.88 inHg



Available data for KRYW from the past 2 hours
LAGO VISTA, TX
Metar
KRYW 262115Z AUTO 27003KT 7SM RA BKN043 OVC050 23/23 A2992 RMK AO2 P0001 T02320226

21:15 UTC

Wind: 270° 3kt

Visibility: 7 SM

Sky: BKN 4300 ft

Temp: 23 deg C / 73.4 deg F

Dewpoint: 23 deg C / 73.4 deg F

Pressure: 29.92 inHg